| time (UTC) | temp F | wind direction | speed MPH | gust MPH | rain 1hr in | rain 24hr in | rain mn in | humidity % | barometer mb |
| 20260904190507 | 58 | 62 | 0.0 | 3.0 | 0.00 | 0.07 | 0.07 | 85 | 1014.6 |
| 20260904190024 | 58 | 62 | 1.0 | 3.0 | 0.00 | 0.07 | 0.07 | 85 | 1014.6 |
| 20260904185507 | 58 | 62 | 0.0 | 3.0 | 0.00 | 0.07 | 0.07 | 88 | 1014.6 |
| 20260904185015 | 58 | 62 | 1.0 | 2.0 | 0.00 | 0.07 | 0.07 | 87 | 1014.5 |
| 20260904184531 | 58 | 32 | 0.0 | 2.0 | 0.00 | 0.07 | 0.07 | 91 | 1014.4 |
| 20260904184009 | 58 | 17 | 0.0 | 2.0 | 0.00 | 0.07 | 0.07 | 90 | 1014.4 |
| 20260904183514 | 57 | 17 | 0.0 | 2.0 | 0.00 | 0.07 | 0.07 | 90 | 1014.3 |
| 20260904183025 | 57 | 291 | 0.0 | 0.0 | 0.00 | 0.07 | 0.07 | 93 | 1014.3 |
| 20260904182508 | 57 | 291 | 0.0 | 0.0 | 0.00 | 0.07 | 0.07 | 92 | 1014.3 |
| 20260904182022 | 57 | 291 | 0.0 | 0.0 | 0.00 | 0.07 | 0.07 | 91 | 1014.3 |
| 20260904181542 | 57 | 291 | 0.0 | 0.0 | 0.00 | 0.07 | 0.07 | 93 | 1014.4 |
| 20260904181005 | 57 | 291 | 0.0 | 0.0 | 0.00 | 0.07 | 0.07 | 93 | 1014.4 |
| 20260904180520 | 57 | 291 | 0.0 | 0.0 | 0.00 | 0.07 | 0.07 | 94 | 1014.4 |
| 20260904180028 | 56 | 291 | 0.0 | 0.0 | 0.00 | 0.07 | 0.07 | 95 | 1014.3 |
| 20260904175505 | 56 | 291 | 0.0 | 0.0 | 0.00 | 0.07 | 0.07 | 95 | 1014.2 |
| 20260904175017 | 56 | 291 | 0.0 | 0.0 | 0.00 | 0.07 | 0.07 | 95 | 1014.2 |
| 20260904174524 | 56 | 291 | 0.0 | 0.0 | 0.00 | 0.07 | 0.07 | 95 | 1014.2 |
| 20260904174006 | 56 | 291 | 0.0 | 0.0 | 0.00 | 0.07 | 0.07 | 96 | 1014.2 |
| 20260904173514 | 56 | 291 | 0.0 | 0.0 | 0.00 | 0.07 | 0.07 | 96 | 1014.2 |
| 20260904173026 | 55 | 291 | 0.0 | 0.0 | 0.00 | 0.07 | 0.07 | 95 | 1014.1 |
| 20260904172508 | 55 | 291 | 0.0 | 0.0 | 0.00 | 0.07 | 0.07 | 95 | 1014.2 |
| 20260904172016 | 55 | 291 | 0.0 | 0.0 | 0.00 | 0.07 | 0.07 | 95 | 1014.2 |
| 20260904171527 | 55 | 291 | 0.0 | 0.0 | 0.00 | 0.07 | 0.07 | 96 | 1014.2 |
| 20260904171005 | 55 | 291 | 0.0 | 0.0 | 0.00 | 0.07 | 0.07 | 95 | 1014.2 |
| 20260904170515 | 55 | 291 | 0.0 | 0.0 | 0.00 | 0.07 | 0.07 | 95 | 1014.3 |
| 20260904170024 | 55 | 291 | 0.0 | 0.0 | 0.00 | 0.07 | 0.07 | 95 | 1014.3 |
| 20260904165512 | 55 | 291 | 0.0 | 0.0 | 0.00 | 0.07 | 0.07 | 96 | 1014.4 |
| 20260904165015 | 54 | 291 | 0.0 | 0.0 | 0.00 | 0.07 | 0.07 | 96 | 1014.3 |
| 20260904164526 | 54 | 291 | 0.0 | 0.0 | 0.00 | 0.07 | 0.07 | 96 | 1014.3 |
| 20260904164004 | 54 | 291 | 0.0 | 0.0 | 0.00 | 0.07 | 0.07 | 96 | 1014.3 |
| 20260904163516 | 54 | 291 | 0.0 | 0.0 | 0.00 | 0.07 | 0.07 | 96 | 1014.3 |
| 20260904163024 | 54 | 291 | 0.0 | 0.0 | 0.00 | 0.07 | 0.07 | 95 | 1014.4 |
| 20260904162508 | 53 | 291 | 0.0 | 0.0 | 0.00 | 0.07 | 0.07 | 95 | 1014.3 |
| 20260904162016 | 53 | 291 | 0.0 | 0.0 | 0.00 | 0.07 | 0.07 | 95 | 1014.3 |
| 20260904161524 | 53 | 291 | 0.0 | 0.0 | 0.00 | 0.07 | 0.07 | 95 | 1014.3 |
| 20260904161008 | 53 | 291 | 0.0 | 0.0 | 0.00 | 0.07 | 0.07 | 95 | 1014.3 |
| 20260904160517 | 53 | 291 | 0.0 | 0.0 | 0.00 | 0.07 | 0.07 | 95 | 1014.3 |
| 20260904160025 | 53 | 291 | 0.0 | 0.0 | 0.00 | 0.07 | 0.07 | 95 | 1014.3 |
| 20260904155506 | 53 | 291 | 0.0 | 0.0 | 0.00 | 0.07 | 0.07 | 95 | 1014.4 |
| 20260904155013 | 53 | 291 | 0.0 | 0.0 | 0.00 | 0.07 | 0.07 | 95 | 1014.2 |
| 20260904154541 | 53 | 291 | 0.0 | 0.0 | 0.00 | 0.07 | 0.07 | 95 | 1014.2 |
| 20260904154005 | 53 | 291 | 0.0 | 0.0 | 0.00 | 0.07 | 0.07 | 95 | 1014.2 |
| 20260904153514 | 53 | 291 | 0.0 | 0.0 | 0.01 | 0.07 | 0.07 | 95 | 1014.0 |
| 20260904153027 | 53 | 291 | 0.0 | 0.0 | 0.01 | 0.07 | 0.07 | 95 | 1013.9 |
| 20260904152507 | 53 | 291 | 0.0 | 0.0 | 0.01 | 0.07 | 0.07 | 95 | 1013.8 |
| 20260904152015 | 53 | 291 | 0.0 | 0.0 | 0.02 | 0.07 | 0.07 | 95 | 1013.6 |
| 20260904151523 | 53 | 291 | 0.0 | 0.0 | 0.03 | 0.07 | 0.07 | 95 | 1013.6 |
| 20260904151005 | 52 | 291 | 0.0 | 0.0 | 0.04 | 0.07 | 0.07 | 95 | 1013.6 |
| 20260904150516 | 52 | 291 | 0.0 | 0.0 | 0.04 | 0.07 | 0.07 | 95 | 1013.5 |
| 20260904150026 | 52 | 291 | 0.0 | 0.0 | 0.05 | 0.07 | 0.07 | 95 | 1013.5 |
| 20260904145504 | 52 | 291 | 0.0 | 0.0 | 0.05 | 0.07 | 0.07 | 95 | 1013.6 |
| 20260904145014 | 52 | 291 | 0.0 | 0.0 | 0.06 | 0.07 | 0.07 | 95 | 1013.4 |
| 20260904144524 | 52 | 291 | 0.0 | 0.0 | 0.06 | 0.07 | 0.07 | 95 | 1013.3 |
| 20260904144019 | 52 | 291 | 0.0 | 0.0 | 0.06 | 0.07 | 0.07 | 94 | 1013.4 |
| 20260904143516 | 52 | 291 | 0.0 | 0.0 | 0.05 | 0.06 | 0.06 | 94 | 1013.3 |
| 20260904143034 | 52 | 291 | 0.0 | 0.0 | 0.05 | 0.06 | 0.06 | 94 | 1013.3 |
| 20260904142518 | 52 | 291 | 0.0 | 0.0 | 0.05 | 0.06 | 0.06 | 94 | 1013.3 |
| 20260904142017 | 52 | 291 | 0.0 | 2.0 | 0.04 | 0.05 | 0.05 | 94 | 1013.2 |
| 20260904141526 | 52 | 291 | 0.0 | 2.0 | 0.03 | 0.04 | 0.04 | 94 | 1013.2 |
| 20260904141017 | 52 | 291 | 0.0 | 0.0 | 0.02 | 0.03 | 0.03 | 94 | 1013.2 |
| 20260904140519 | 52 | 291 | 0.0 | 0.0 | 0.02 | 0.03 | 0.03 | 94 | 1013.1 |
| 20260904140038 | 51 | 291 | 0.0 | 0.0 | 0.01 | 0.02 | 0.02 | 94 | 1013.1 |
| 20260904135518 | 51 | 291 | 0.0 | 0.0 | 0.01 | 0.02 | 0.02 | 94 | 1013.1 |
| 20260904135016 | 51 | 291 | 0.0 | 0.0 | 0.00 | 0.01 | 0.01 | 94 | 1013.0 |
| 20260904134526 | 51 | 291 | 0.0 | 0.0 | 0.00 | 0.01 | 0.01 | 94 | 1013.0 |
| 20260904134018 | 51 | 291 | 0.0 | 0.0 | 0.00 | 0.01 | 0.01 | 94 | 1012.9 |
| 20260904133518 | 51 | 291 | 0.0 | 0.0 | 0.00 | 0.01 | 0.01 | 93 | 1012.9 |
| 20260904133029 | 51 | 291 | 0.0 | 0.0 | 0.01 | 0.01 | 0.01 | 93 | 1012.8 |
| 20260904132519 | 51 | 291 | 0.0 | 0.0 | 0.01 | 0.01 | 0.01 | 93 | 1012.7 |
| 20260904132016 | 51 | 291 | 0.0 | 0.0 | 0.01 | 0.01 | 0.01 | 93 | 1012.7 |
| 20260904131530 | 51 | 291 | 0.0 | 0.0 | 0.01 | 0.01 | 0.01 | 93 | 1012.7 |
| 20260904131014 | 51 | 291 | 0.0 | 0.0 | 0.01 | 0.01 | 0.01 | 93 | 1012.7 |
| 20260904130515 | 51 | 291 | 0.0 | 0.0 | 0.01 | 0.01 | 0.01 | 92 | 1012.6 |
| 20260904130025 | 51 | 291 | 0.0 | 0.0 | 0.01 | 0.01 | 0.01 | 92 | 1012.7 |
| 20260904125518 | 51 | 291 | 0.0 | 0.0 | 0.01 | 0.01 | 0.01 | 92 | 1012.6 |
| 20260904125016 | 51 | 291 | 0.0 | 0.0 | 0.01 | 0.01 | 0.01 | 92 | 1012.5 |
| 20260904124527 | 52 | 291 | 0.0 | 0.0 | 0.01 | 0.01 | 0.01 | 92 | 1012.5 |
| 20260904124017 | 52 | 291 | 0.0 | 0.0 | 0.01 | 0.01 | 0.01 | 93 | 1012.4 |
| 20260904123517 | 52 | 291 | 0.0 | 0.0 | 0.01 | 0.01 | 0.01 | 93 | 1012.3 |
| 20260904123032 | 52 | 291 | 0.0 | 0.0 | 0.00 | 0.00 | 0.00 | 92 | 1012.2 |
| 20260904122523 | 52 | 291 | 0.0 | 0.0 | 0.00 | 0.01 | 0.00 | 92 | 1012.1 |
| 20260904122018 | 52 | 291 | 0.0 | 0.0 | 0.00 | 0.01 | 0.00 | 92 | 1012.1 |
| 20260904121527 | 52 | 291 | 0.0 | 0.0 | 0.00 | 0.01 | 0.00 | 92 | 1012.0 |
| 20260904121009 | 52 | 291 | 0.0 | 0.0 | 0.00 | 0.01 | 0.00 | 92 | 1012.0 |
| 20260904120503 | 52 | 291 | 0.0 | 0.0 | 0.00 | 0.01 | 0.00 | 92 | 1012.0 |
| 20260904120038 | 52 | 291 | 0.0 | 0.0 | 0.00 | 0.01 | 0.00 | 91 | 1012.0 |
| 20260904115508 | 52 | 291 | 0.0 | 0.0 | 0.00 | 0.01 | 0.00 | 91 | 1012.0 |
| 20260904115004 | 52 | 291 | 0.0 | 0.0 | 0.00 | 0.01 | 0.00 | 91 | 1012.0 |
| 20260904114528 | 52 | 291 | 0.0 | 0.0 | 0.00 | 0.01 | 0.00 | 91 | 1012.0 |
| 20260904114009 | 52 | 291 | 0.0 | 0.0 | 0.00 | 0.01 | 0.00 | 91 | 1011.9 |
| 20260904113504 | 52 | 291 | 0.0 | 0.0 | 0.00 | 0.01 | 0.00 | 91 | 1011.9 |
| 20260904113027 | 52 | 291 | 0.0 | 0.0 | 0.00 | 0.01 | 0.00 | 91 | 1011.8 |
| 20260904112509 | 52 | 291 | 0.0 | 0.0 | 0.00 | 0.01 | 0.00 | 91 | 1011.8 |
| 20260904112002 | 51 | 292 | 0.0 | 0.0 | 0.00 | 0.02 | 0.00 | 91 | 1011.8 |
| 20260904111526 | 51 | 292 | 0.0 | 0.0 | 0.00 | 0.02 | 0.00 | 91 | 1011.8 |
| 20260904111007 | 51 | 292 | 0.0 | 0.0 | 0.00 | 0.02 | 0.00 | 91 | 1011.8 |
| 20260904110503 | 51 | 292 | 0.0 | 0.0 | 0.00 | 0.02 | 0.00 | 91 | 1011.9 |
| 20260904110023 | 51 | 292 | 0.0 | 0.0 | 0.00 | 0.02 | 0.00 | 91 | 1011.9 |
| 20260904105508 | 51 | 292 | 0.0 | 0.0 | 0.00 | 0.02 | 0.00 | 91 | 1011.7 |
| 20260904105004 | 51 | 292 | 0.0 | 0.0 | 0.00 | 0.02 | 0.00 | 91 | 1011.8 |
| 20260904104540 | 51 | 292 | 0.0 | 0.0 | 0.00 | 0.02 | 0.00 | 91 | 1011.8 |
| 20260904104011 | 51 | 292 | 0.0 | 0.0 | 0.00 | 0.02 | 0.00 | 91 | 1011.8 |
| 20260904103503 | 51 | 292 | 0.0 | 0.0 | 0.00 | 0.02 | 0.00 | 91 | 1011.7 |
| 20260904103026 | 51 | 292 | 0.0 | 0.0 | 0.00 | 0.02 | 0.00 | 91 | 1011.8 |
| 20260904102507 | 51 | 292 | 0.0 | 0.0 | 0.00 | 0.02 | 0.00 | 91 | 1011.7 |
| 20260904102004 | 51 | 292 | 0.0 | 0.0 | 0.00 | 0.02 | 0.00 | 91 | 1011.7 |
| 20260904101524 | 51 | 292 | 0.0 | 0.0 | 0.00 | 0.02 | 0.00 | 91 | 1011.6 |
| 20260904101006 | 51 | 292 | 0.0 | 0.0 | 0.00 | 0.02 | 0.00 | 91 | 1011.6 |
| 20260904100514 | 51 | 292 | 0.0 | 0.0 | 0.00 | 0.02 | 0.00 | 91 | 1011.6 |
| 20260904100031 | 51 | 292 | 0.0 | 0.0 | 0.00 | 0.02 | 0.00 | 91 | 1011.5 |
| 20260904095508 | 51 | 292 | 0.0 | 0.0 | 0.00 | 0.02 | 0.00 | 91 | 1011.5 |
| 20260904095014 | 51 | 292 | 0.0 | 0.0 | 0.00 | 0.02 | 0.00 | 91 | 1011.4 |
| 20260904094533 | 51 | 292 | 0.0 | 0.0 | 0.00 | 0.02 | 0.00 | 91 | 1011.3 |
| 20260904094007 | 51 | 292 | 0.0 | 0.0 | 0.00 | 0.02 | 0.00 | 91 | 1011.3 |
| 20260904093516 | 51 | 292 | 0.0 | 0.0 | 0.00 | 0.02 | 0.00 | 91 | 1011.3 |
| 20260904093026 | 51 | 292 | 0.0 | 0.0 | 0.00 | 0.02 | 0.00 | 91 | 1011.4 |
| 20260904092508 | 51 | 292 | 0.0 | 0.0 | 0.00 | 0.02 | 0.00 | 91 | 1011.5 |
| 20260904092017 | 51 | 292 | 0.0 | 0.0 | 0.00 | 0.02 | 0.00 | 91 | 1011.6 |
| 20260904091527 | 51 | 292 | 0.0 | 0.0 | 0.00 | 0.02 | 0.00 | 91 | 1011.7 |
| 20260904091007 | 51 | 292 | 0.0 | 0.0 | 0.00 | 0.02 | 0.00 | 91 | 1011.7 |
| 20260904090515 | 51 | 292 | 0.0 | 0.0 | 0.00 | 0.02 | 0.00 | 91 | 1011.7 |
| 20260904090028 | 51 | 292 | 0.0 | 0.0 | 0.00 | 0.02 | 0.00 | 91 | 1011.8 |
| 20260904085508 | 51 | 292 | 0.0 | 0.0 | 0.00 | 0.02 | 0.00 | 91 | 1011.7 |
| 20260904085015 | 52 | 292 | 0.0 | 0.0 | 0.00 | 0.02 | 0.00 | 91 | 1011.8 |
| 20260904084533 | 52 | 292 | 0.0 | 0.0 | 0.00 | 0.02 | 0.00 | 91 | 1011.9 |
| 20260904084008 | 52 | 292 | 0.0 | 0.0 | 0.00 | 0.02 | 0.00 | 91 | 1011.9 |
| 20260904083517 | 52 | 292 | 0.0 | 0.0 | 0.00 | 0.02 | 0.00 | 91 | 1012.0 |
| 20260904083031 | 52 | 292 | 0.0 | 0.0 | 0.00 | 0.02 | 0.00 | 91 | 1012.0 |
| 20260904082506 | 52 | 292 | 0.0 | 0.0 | 0.00 | 0.02 | 0.00 | 91 | 1012.0 |
| 20260904082016 | 52 | 292 | 0.0 | 0.0 | 0.00 | 0.02 | 0.00 | 91 | 1012.0 |
| 20260904081526 | 52 | 292 | 0.0 | 0.0 | 0.00 | 0.02 | 0.00 | 91 | 1012.0 |
| 20260904081013 | 52 | 292 | 0.0 | 0.0 | 0.00 | 0.02 | 0.00 | 90 | 1011.9 |
| 20260904080518 | 52 | 292 | 0.0 | 0.0 | 0.00 | 0.02 | 0.00 | 90 | 1011.9 |
| 20260904080033 | 52 | 292 | 0.0 | 0.0 | 0.00 | 0.02 | 0.00 | 90 | 1011.9 |
| 20260904075508 | 52 | 292 | 0.0 | 0.0 | 0.00 | 0.02 | 0.00 | 90 | 1011.9 |
| 20260904075017 | 52 | 292 | 0.0 | 0.0 | 0.00 | 0.02 | 0.00 | 90 | 1011.9 |
| 20260904074527 | 52 | 292 | 0.0 | 0.0 | 0.00 | 0.02 | 0.00 | 90 | 1011.9 |
| 20260904074006 | 52 | 292 | 0.0 | 0.0 | 0.00 | 0.02 | 0.00 | 90 | 1011.9 |
| 20260904073516 | 52 | 292 | 0.0 | 0.0 | 0.00 | 0.02 | 0.00 | 90 | 1011.9 |
| 20260904073026 | 52 | 292 | 0.0 | 0.0 | 0.00 | 0.02 | 0.00 | 90 | 1011.9 |
| 20260904072507 | 52 | 292 | 0.0 | 0.0 | 0.00 | 0.02 | 0.00 | 90 | 1011.8 |
| 20260904072015 | 52 | 292 | 0.0 | 0.0 | 0.00 | 0.02 | 0.00 | 90 | 1011.8 |
| 20260904071524 | 52 | 292 | 0.0 | 0.0 | 0.00 | 0.02 | 0.00 | 89 | 1011.8 |
| 20260904071008 | 52 | 292 | 0.0 | 0.0 | 0.00 | 0.02 | 0.00 | 89 | 1011.8 |
| 20260904070516 | 52 | 292 | 0.0 | 0.0 | 0.00 | 0.02 | 0.00 | 89 | 1011.6 |
| 20260904070027 | 52 | 292 | 0.0 | 0.0 | 0.00 | 0.02 | 0.00 | 89 | 1011.6 |
| 20260904065509 | 52 | 292 | 0.0 | 0.0 | 0.00 | 0.02 | 0.02 | 89 | 1011.6 |
| 20260904065015 | 52 | 292 | 0.0 | 0.0 | 0.00 | 0.02 | 0.02 | 89 | 1011.5 |
| 20260904064527 | 52 | 292 | 0.0 | 0.0 | 0.00 | 0.02 | 0.02 | 89 | 1011.5 |
| 20260904064007 | 53 | 292 | 0.0 | 0.0 | 0.00 | 0.02 | 0.02 | 88 | 1011.5 |
| 20260904063514 | 53 | 292 | 0.0 | 0.0 | 0.00 | 0.02 | 0.02 | 88 | 1011.5 |
| 20260904063031 | 53 | 292 | 0.0 | 0.0 | 0.00 | 0.02 | 0.02 | 88 | 1011.5 |
| 20260904062507 | 53 | 292 | 0.0 | 0.0 | 0.00 | 0.02 | 0.02 | 88 | 1011.4 |
| 20260904062014 | 53 | 292 | 0.0 | 0.0 | 0.00 | 0.02 | 0.02 | 88 | 1011.4 |
| 20260904061523 | 53 | 292 | 0.0 | 0.0 | 0.00 | 0.02 | 0.02 | 88 | 1011.4 |
| 20260904061010 | 53 | 292 | 0.0 | 0.0 | 0.00 | 0.02 | 0.02 | 87 | 1011.4 |
| 20260904060516 | 53 | 292 | 0.0 | 0.0 | 0.00 | 0.02 | 0.02 | 87 | 1011.4 |
| 20260904060025 | 53 | 292 | 0.0 | 0.0 | 0.00 | 0.02 | 0.02 | 87 | 1011.4 |
| 20260904055517 | 53 | 292 | 0.0 | 0.0 | 0.00 | 0.02 | 0.02 | 87 | 1011.4 |
| 20260904055017 | 53 | 292 | 0.0 | 0.0 | 0.00 | 0.02 | 0.02 | 87 | 1011.3 |
| 20260904054538 | 53 | 292 | 0.0 | 0.0 | 0.00 | 0.02 | 0.02 | 87 | 1011.3 |
| 20260904054018 | 54 | 292 | 0.0 | 0.0 | 0.00 | 0.02 | 0.02 | 87 | 1011.3 |
| 20260904053518 | 54 | 292 | 0.0 | 0.0 | 0.00 | 0.02 | 0.02 | 87 | 1011.4 |
| 20260904053029 | 54 | 292 | 0.0 | 0.0 | 0.00 | 0.02 | 0.02 | 87 | 1011.3 |
| 20260904052518 | 54 | 292 | 0.0 | 0.0 | 0.00 | 0.02 | 0.02 | 87 | 1011.3 |
| 20260904052016 | 54 | 292 | 0.0 | 0.0 | 0.00 | 0.02 | 0.02 | 87 | 1011.4 |
| 20260904051528 | 54 | 292 | 0.0 | 0.0 | 0.00 | 0.02 | 0.02 | 87 | 1011.5 |
| 20260904051017 | 54 | 292 | 0.0 | 0.0 | 0.00 | 0.02 | 0.02 | 86 | 1011.5 |
| 20260904050519 | 54 | 292 | 0.0 | 0.0 | 0.00 | 0.02 | 0.02 | 86 | 1011.4 |
| 20260904050027 | 54 | 292 | 0.0 | 0.0 | 0.00 | 0.02 | 0.02 | 86 | 1011.4 |
| 20260904045519 | 54 | 292 | 0.0 | 0.0 | 0.00 | 0.02 | 0.02 | 86 | 1011.5 |
| 20260904045016 | 54 | 292 | 0.0 | 0.0 | 0.00 | 0.02 | 0.02 | 86 | 1011.4 |
| 20260904044531 | 54 | 292 | 0.0 | 0.0 | 0.00 | 0.02 | 0.02 | 86 | 1011.5 |
| 20260904044019 | 54 | 292 | 0.0 | 0.0 | 0.00 | 0.02 | 0.02 | 86 | 1011.5 |
| 20260904043515 | 54 | 292 | 0.0 | 0.0 | 0.00 | 0.02 | 0.02 | 85 | 1011.5 |
| 20260904043026 | 54 | 292 | 0.0 | 0.0 | 0.00 | 0.02 | 0.02 | 85 | 1011.5 |
| 20260904042518 | 55 | 292 | 0.0 | 0.0 | 0.00 | 0.02 | 0.02 | 85 | 1011.4 |
| 20260904042020 | 55 | 292 | 0.0 | 0.0 | 0.00 | 0.02 | 0.02 | 85 | 1011.4 |
| 20260904041526 | 55 | 292 | 0.0 | 0.0 | 0.00 | 0.02 | 0.02 | 85 | 1011.4 |
| 20260904041016 | 55 | 292 | 0.0 | 0.0 | 0.00 | 0.02 | 0.02 | 85 | 1011.3 |
| 20260904040520 | 55 | 292 | 0.0 | 0.0 | 0.00 | 0.02 | 0.02 | 85 | 1011.3 |
| 20260904040035 | 55 | 292 | 0.0 | 0.0 | 0.00 | 0.02 | 0.02 | 84 | 1011.3 |
| 20260904035518 | 55 | 292 | 0.0 | 0.0 | 0.00 | 0.02 | 0.02 | 84 | 1011.3 |
| 20260904035015 | 56 | 292 | 0.0 | 0.0 | 0.00 | 0.02 | 0.02 | 84 | 1011.2 |
| 20260904034533 | 56 | 292 | 0.0 | 0.0 | 0.00 | 0.02 | 0.02 | 83 | 1011.2 |
| 20260904034017 | 56 | 292 | 0.0 | 0.0 | 0.00 | 0.02 | 0.02 | 83 | 1011.1 |
| 20260904033516 | 56 | 292 | 0.0 | 0.0 | 0.00 | 0.02 | 0.02 | 83 | 1011.1 |
| 20260904033026 | 56 | 292 | 0.0 | 0.0 | 0.00 | 0.02 | 0.02 | 82 | 1011.0 |
| 20260904032518 | 56 | 292 | 0.0 | 0.0 | 0.00 | 0.02 | 0.02 | 81 | 1011.0 |
| 20260904032017 | 56 | 292 | 0.0 | 0.0 | 0.00 | 0.02 | 0.02 | 81 | 1010.9 |
| 20260904031510 | 56 | 292 | 0.0 | 0.0 | 0.00 | 0.02 | 0.02 | 81 | 1010.9 |
| 20260904031004 | 56 | 292 | 0.0 | 0.0 | 0.00 | 0.02 | 0.02 | 81 | 1010.9 |
| 20260904030503 | 57 | 292 | 0.0 | 0.0 | 0.00 | 0.02 | 0.02 | 81 | 1010.8 |
| 20260904030012 | 57 | 292 | 0.0 | 0.0 | 0.00 | 0.02 | 0.02 | 81 | 1010.8 |
| 20260904025506 | 57 | 292 | 0.0 | 0.0 | 0.00 | 0.02 | 0.02 | 81 | 1010.8 |
| 20260904025003 | 57 | 292 | 0.0 | 0.0 | 0.00 | 0.02 | 0.02 | 81 | 1010.6 |
| 20260904024511 | 57 | 292 | 0.0 | 0.0 | 0.00 | 0.02 | 0.02 | 80 | 1010.5 |
| 20260904024007 | 58 | 292 | 0.0 | 0.0 | 0.00 | 0.02 | 0.02 | 79 | 1010.5 |
| 20260904023506 | 58 | 292 | 0.0 | 0.0 | 0.00 | 0.02 | 0.02 | 79 | 1010.4 |
| 20260904023012 | 58 | 292 | 0.0 | 0.0 | 0.00 | 0.02 | 0.02 | 78 | 1010.4 |
| 20260904022508 | 58 | 292 | 0.0 | 0.0 | 0.00 | 0.02 | 0.02 | 77 | 1010.4 |
| 20260904022002 | 58 | 292 | 0.0 | 0.0 | 0.00 | 0.02 | 0.02 | 77 | 1010.4 |
| 20260904021514 | 58 | 292 | 0.0 | 0.0 | 0.00 | 0.02 | 0.02 | 77 | 1010.4 |
| 20260904021010 | 58 | 292 | 0.0 | 0.0 | 0.00 | 0.02 | 0.02 | 77 | 1010.3 |
| 20260904020504 | 58 | 292 | 0.0 | 0.0 | 0.00 | 0.02 | 0.02 | 78 | 1010.3 |
| 20260904020013 | 59 | 292 | 0.0 | 0.0 | 0.00 | 0.02 | 0.02 | 78 | 1010.3 |
| 20260904015507 | 59 | 292 | 0.0 | 0.0 | 0.00 | 0.02 | 0.02 | 78 | 1010.3 |
| 20260904015004 | 59 | 292 | 0.0 | 0.0 | 0.00 | 0.02 | 0.02 | 77 | 1010.2 |
| 20260904014516 | 59 | 292 | 0.0 | 0.0 | 0.00 | 0.02 | 0.02 | 77 | 1010.2 |
| 20260904014009 | 59 | 292 | 0.0 | 0.0 | 0.00 | 0.02 | 0.02 | 76 | 1010.2 |
| 20260904013508 | 59 | 292 | 0.0 | 0.0 | 0.00 | 0.02 | 0.02 | 76 | 1010.2 |
| 20260904013020 | 60 | 292 | 0.0 | 0.0 | 0.00 | 0.02 | 0.02 | 76 | 1010.2 |
| 20260904012507 | 60 | 292 | 0.0 | 0.0 | 0.00 | 0.02 | 0.02 | 76 | 1010.2 |
| 20260904012003 | 60 | 292 | 0.0 | 1.0 | 0.00 | 0.02 | 0.02 | 76 | 1010.1 |
| 20260904011527 | 60 | 292 | 0.0 | 1.0 | 0.00 | 0.02 | 0.02 | 75 | 1010.1 |
| 20260904011006 | 60 | 292 | 0.0 | 2.0 | 0.00 | 0.02 | 0.02 | 74 | 1010.0 |
| 20260904010508 | 60 | 292 | 0.0 | 2.0 | 0.00 | 0.02 | 0.02 | 74 | 1010.1 |
| 20260904010017 | 61 | 292 | 0.0 | 0.0 | 0.00 | 0.02 | 0.02 | 75 | 1010.0 |
| 20260904005510 | 61 | 292 | 0.0 | 0.0 | 0.00 | 0.02 | 0.02 | 74 | 1010.1 |
| 20260904005009 | 61 | 292 | 0.0 | 0.0 | 0.00 | 0.02 | 0.02 | 73 | 1010.1 |
| 20260904004521 | 61 | 292 | 0.0 | 0.0 | 0.00 | 0.02 | 0.02 | 73 | 1010.0 |
| 20260904004006 | 61 | 292 | 0.0 | 0.0 | 0.00 | 0.02 | 0.02 | 73 | 1010.0 |
| 20260904003508 | 61 | 292 | 0.0 | 0.0 | 0.00 | 0.02 | 0.02 | 73 | 1010.0 |
| 20260904003016 | 61 | 292 | 0.0 | 1.0 | 0.00 | 0.02 | 0.02 | 72 | 1010.0 |
| 20260904002509 | 61 | 292 | 0.0 | 2.0 | 0.00 | 0.02 | 0.02 | 72 | 1010.0 |
| 20260904002008 | 61 | 292 | 0.0 | 2.0 | 0.00 | 0.02 | 0.02 | 72 | 1010.1 |
| 20260904001528 | 62 | 292 | 0.0 | 3.0 | 0.00 | 0.02 | 0.02 | 73 | 1010.0 |
| 20260904001020 | 62 | 294 | 0.0 | 3.0 | 0.00 | 0.02 | 0.02 | 72 | 1010.0 |
| 20260904000520 | 62 | 341 | 0.0 | 2.0 | 0.00 | 0.02 | 0.02 | 73 | 1010.1 |
| 20260904000028 | 62 | 341 | 0.0 | 2.0 | 0.00 | 0.02 | 0.02 | 71 | 1010.0 |
| 20260903235523 | 62 | 341 | 0.0 | 2.0 | 0.00 | 0.02 | 0.02 | 71 | 1010.0 |
| 20260903235017 | 62 | 341 | 0.0 | 2.0 | 0.00 | 0.02 | 0.02 | 71 | 1010.1 |
| 20260903234529 | 62 | 341 | 0.0 | 2.0 | 0.00 | 0.02 | 0.02 | 71 | 1010.1 |
| 20260903234018 | 62 | 341 | 0.0 | 2.0 | 0.00 | 0.02 | 0.02 | 70 | 1010.1 |
| 20260903233517 | 62 | 341 | 0.0 | 2.0 | 0.00 | 0.02 | 0.02 | 71 | 1010.1 |
| 20260903233026 | 62 | 341 | 0.0 | 1.0 | 0.00 | 0.02 | 0.02 | 72 | 1010.2 |
| 20260903232519 | 62 | 341 | 0.0 | 1.0 | 0.00 | 0.02 | 0.02 | 72 | 1010.1 |
| 20260903232016 | 62 | 341 | 0.0 | 2.0 | 0.00 | 0.02 | 0.02 | 71 | 1010.1 |
| 20260903231527 | 62 | 341 | 0.0 | 2.0 | 0.00 | 0.02 | 0.02 | 70 | 1010.1 |
| 20260903231016 | 62 | 341 | 0.0 | 2.0 | 0.00 | 0.02 | 0.02 | 71 | 1010.2 |
| 20260903230515 | 62 | 341 | 0.0 | 1.0 | 0.00 | 0.02 | 0.02 | 71 | 1010.2 |
| 20260903230035 | 62 | 341 | 0.0 | 1.0 | 0.00 | 0.02 | 0.02 | 72 | 1010.3 |
| 20260903225524 | 62 | 341 | 0.0 | 1.0 | 0.00 | 0.02 | 0.02 | 70 | 1010.3 |
| 20260903225014 | 62 | 341 | 0.0 | 2.0 | 0.00 | 0.02 | 0.02 | 71 | 1010.3 |
| 20260903224534 | 62 | 341 | 0.0 | 2.0 | 0.00 | 0.02 | 0.02 | 71 | 1010.3 |
| 20260903224019 | 62 | 341 | 0.0 | 2.0 | 0.00 | 0.02 | 0.02 | 72 | 1010.3 |
| 20260903223516 | 62 | 253 | 0.0 | 2.0 | 0.00 | 0.02 | 0.02 | 73 | 1010.3 |
| 20260903223028 | 62 | 253 | 0.0 | 2.0 | 0.00 | 0.02 | 0.02 | 71 | 1010.3 |
| 20260903222518 | 62 | 253 | 0.0 | 2.0 | 0.00 | 0.02 | 0.02 | 71 | 1010.3 |
| 20260903222018 | 62 | 253 | 0.0 | 1.0 | 0.00 | 0.02 | 0.02 | 72 | 1010.3 |
| 20260903221531 | 62 | 253 | 0.0 | 1.0 | 0.00 | 0.02 | 0.02 | 72 | 1010.3 |
| 20260903221018 | 62 | 253 | 0.0 | 1.0 | 0.00 | 0.02 | 0.02 | 72 | 1010.3 |
| 20260903220514 | 62 | 253 | 0.0 | 1.0 | 0.00 | 0.02 | 0.02 | 71 | 1010.3 |
| 20260903220049 | 62 | 253 | 0.0 | 2.0 | 0.00 | 0.02 | 0.02 | 71 | 1010.4 |
| 20260903215517 | 62 | 253 | 0.0 | 2.0 | 0.00 | 0.02 | 0.02 | 71 | 1010.4 |
| 20260903215016 | 62 | 42 | 0.0 | 2.0 | 0.00 | 0.02 | 0.02 | 72 | 1010.4 |
| 20260903214528 | 62 | 42 | 0.0 | 3.0 | 0.00 | 0.02 | 0.02 | 70 | 1010.3 |
| 20260903214018 | 62 | 42 | 0.0 | 3.0 | 0.00 | 0.02 | 0.02 | 71 | 1010.4 |
| 20260903213516 | 62 | 42 | 0.0 | 2.0 | 0.00 | 0.02 | 0.02 | 71 | 1010.3 |
| 20260903213033 | 62 | 42 | 0.0 | 2.0 | 0.00 | 0.02 | 0.02 | 71 | 1010.3 |
| 20260903212516 | 62 | 42 | 0.0 | 2.0 | 0.00 | 0.02 | 0.02 | 72 | 1010.3 |
| 20260903212019 | 62 | 304 | 0.0 | 2.0 | 0.00 | 0.02 | 0.02 | 72 | 1010.3 |
| 20260903211503 | 62 | 304 | 0.0 | 3.0 | 0.00 | 0.02 | 0.02 | 72 | 1010.3 |
| 20260903211009 | 62 | 304 | 0.0 | 3.0 | 0.00 | 0.02 | 0.02 | 72 | 1010.2 |
| 20260903210504 | 62 | 70 | 0.0 | 2.0 | 0.00 | 0.02 | 0.02 | 72 | 1010.1 |
| 20260903210004 | 62 | 70 | 0.0 | 2.0 | 0.00 | 0.02 | 0.02 | 70 | 1010.0 |
| 20260903205510 | 62 | 70 | 0.0 | 3.0 | 0.00 | 0.02 | 0.02 | 72 | 1009.9 |
| 20260903205004 | 62 | 270 | 1.0 | 3.0 | 0.00 | 0.02 | 0.02 | 71 | 1009.9 |
| 20260903204510 | 62 | 76 | 0.0 | 3.0 | 0.00 | 0.02 | 0.02 | 72 | 1010.0 |
| 20260903204010 | 62 | 51 | 0.0 | 3.0 | 0.00 | 0.02 | 0.02 | 72 | 1009.9 |
| 20260903203508 | 61 | 348 | 0.0 | 2.0 | 0.00 | 0.02 | 0.02 | 72 | 1009.8 |
| 20260903203004 | 62 | 348 | 0.0 | 3.0 | 0.00 | 0.02 | 0.02 | 71 | 1009.8 |
| 20260903202507 | 62 | 59 | 0.0 | 3.0 | 0.00 | 0.02 | 0.02 | 71 | 1009.8 |
| 20260903202006 | 62 | 61 | 1.0 | 3.0 | 0.00 | 0.02 | 0.02 | 70 | 1009.7 |
| 20260903201506 | 62 | 61 | 0.0 | 3.0 | 0.00 | 0.02 | 0.02 | 70 | 1009.7 |
| 20260903201010 | 63 | 52 | 1.0 | 3.0 | 0.00 | 0.02 | 0.02 | 69 | 1009.7 |
| 20260903200503 | 63 | 59 | 0.0 | 3.0 | 0.00 | 0.02 | 0.02 | 69 | 1009.7 |
| 20260903200030 | 63 | 58 | 1.0 | 4.0 | 0.00 | 0.02 | 0.02 | 68 | 1009.7 |
| 20260903195507 | 63 | 70 | 1.0 | 6.0 | 0.00 | 0.02 | 0.02 | 68 | 1009.6 |
| 20260903195006 | 63 | 63 | 1.0 | 6.0 | 0.00 | 0.02 | 0.02 | 69 | 1009.6 |
| 20260903194543 | 63 | 304 | 0.0 | 5.0 | 0.00 | 0.02 | 0.02 | 68 | 1009.6 |
| 20260903194009 | 63 | 232 | 1.0 | 4.0 | 0.00 | 0.02 | 0.02 | 67 | 1009.5 |
| 20260903193508 | 62 | 20 | 2.0 | 4.0 | 0.00 | 0.02 | 0.02 | 69 | 1009.4 |
| 20260903193030 | 62 | 288 | 0.0 | 2.0 | 0.00 | 0.02 | 0.02 | 71 | 1009.4 |
| 20260903192509 | 62 | 62 | 0.0 | 3.0 | 0.00 | 0.02 | 0.02 | 72 | 1009.4 |
| 20260903192006 | 62 | 62 | 1.0 | 3.0 | 0.00 | 0.02 | 0.02 | 72 | 1009.4 |
| 20260903191529 | 62 | 246 | 0.0 | 3.0 | 0.00 | 0.02 | 0.02 | 72 | 1009.3 |
| 20260903191007 | 62 | 32 | 0.0 | 3.0 | 0.00 | 0.02 | 0.02 | 71 | 1009.3 |